Time;durP1;ratioP1;P1;durP2;ratioP2;P2;SDS_P1;SDS_P2;PMS_P1;PMS_P2;Temp;Humidity;BMP_temperature;BMP_pressure;BME280_temperature;BME280_humidity;BME280_pressure;Samples;Min_cycle;Max_cycle;Signal;HPM_P1;HPM_P2
2023/08/18 00:01:20;;;;;;;;;25.33;23.67;;;;;22.66;97.34;101304.75;5083803;27;45248;-75
2023/08/18 00:03:45;;;;;;;;;19.33;19.33;;;;;22.68;98.69;101310.84;5080243;27;45202;-75
2023/08/18 00:06:11;;;;;;;;;24.67;22.33;;;;;22.66;97.98;101308.31;5092776;27;45362;-75
2023/08/18 00:08:37;;;;;;;;;23.67;23.67;;;;;22.60;99.24;101306.13;5074801;28;45506;-75
2023/08/18 00:11:02;;;;;;;;;23.33;23.00;;;;;22.62;98.40;101311.38;5082658;27;45292;-75
2023/08/18 00:13:28;;;;;;;;;25.67;24.00;;;;;22.53;99.60;101293.31;5077154;27;46747;-75
2023/08/18 00:15:53;;;;;;;;;29.67;24.33;;;;;22.54;100.00;101309.38;5087346;27;45359;-74
2023/08/18 00:18:19;;;;;;;;;25.33;25.33;;;;;22.45;99.57;101295.84;5071291;27;45445;-75
2023/08/18 00:20:44;;;;;;;;;30.00;28.00;;;;;22.50;100.00;101310.63;5085697;27;45523;-75
2023/08/18 00:23:09;;;;;;;;;25.00;21.33;;;;;22.43;100.00;101303.22;5082596;27;46297;-75
2023/08/18 00:25:34;;;;;;;;;29.33;26.00;;;;;22.40;100.00;101298.09;5078773;27;48095;-75
2023/08/18 00:28:00;;;;;;;;;24.33;22.33;;;;;22.44;100.00;101307.63;5085818;27;45728;-75
2023/08/18 00:30:25;;;;;;;;;27.67;25.00;;;;;22.36;100.00;101300.22;5079008;27;51180;-75
2023/08/18 00:32:51;;;;;;;;;103.75;89.50;;;;;22.39;100.00;101299.94;5081703;27;45558;-75
2023/08/18 00:35:17;;;;;;;;;108.00;92.25;;;;;22.39;100.00;101293.69;5070094;27;45544;-75
2023/08/18 00:37:44;;;;;;;;;58.25;45.50;;;;;22.31;100.00;101286.31;5090015;27;45571;-75
2023/08/18 00:40:10;;;;;;;;;35.00;31.00;;;;;22.28;100.00;101283.88;5075110;27;45506;-75
2023/08/18 00:42:35;;;;;;;;;26.33;23.00;;;;;22.30;100.00;101290.84;5075452;27;45640;-75
2023/08/18 00:45:01;;;;;;;;;29.67;28.67;;;;;22.27;100.00;101285.72;5077953;27;45493;-75
2023/08/18 00:47:26;;;;;;;;;24.33;21.67;;;;;22.28;100.00;101294.66;5068781;27;45380;-75
2023/08/18 00:49:53;;;;;;;;;29.00;27.33;;;;;22.21;100.00;101296.19;5088224;27;45407;-75
2023/08/18 00:52:18;;;;;;;;;28.67;25.33;;;;;22.13;100.00;101275.28;5081999;27;45347;-75
2023/08/18 00:54:45;;;;;;;;;31.33;26.00;;;;;22.17;100.00;101290.22;5082609;27;45420;-75
2023/08/18 00:57:10;;;;;;;;;27.00;24.33;;;;;22.11;100.00;101276.44;5084097;27;45275;-75
2023/08/18 00:59:36;;;;;;;;;29.33;26.00;;;;;22.15;100.00;101285.94;5083489;27;45888;-75
2023/08/18 01:02:02;;;;;;;;;28.00;26.33;;;;;22.14;100.00;101285.09;5068694;27;48237;-75
2023/08/18 01:04:30;;;;;;;;;34.33;25.00;;;;;22.11;100.00;101292.59;5092075;27;45291;-75
2023/08/18 01:06:56;;;;;;;;;28.00;26.67;;;;;22.06;100.00;101286.72;5084934;27;45267;-75
2023/08/18 01:09:22;;;;;;;;;31.33;29.33;;;;;22.09;100.00;101283.78;5081532;27;45583;-75
2023/08/18 01:11:59;;;;;;;;;24.33;22.00;;;;;22.06;100.00;101287.59;5096772;27;45513;-75
2023/08/18 01:14:30;;;;;;;;;27.67;26.00;;;;;22.02;100.00;101288.00;5087844;27;45539;-75
2023/08/18 01:17:11;;;;;;;;;28.67;25.67;;;;;22.02;100.00;101285.31;5083162;27;45281;-75
2023/08/18 01:19:37;;;;;;;;;25.33;24.00;;;;;21.98;100.00;101287.44;5077296;27;45467;-76
2023/08/18 01:22:06;;;;;;;;;27.67;25.33;;;;;21.89;100.00;101266.66;5094096;27;46303;-74
2023/08/18 01:24:31;;;;;;;;;23.33;22.67;;;;;21.96;100.00;101272.34;5089957;27;45326;-75
2023/08/18 01:26:57;;;;;;;;;29.67;27.00;;;;;21.96;100.00;101281.28;5073623;28;45591;-75
2023/08/18 01:29:23;;;;;;;;;28.00;24.67;;;;;21.85;100.00;101270.59;5095126;27;45304;-75
2023/08/18 01:31:54;;;;;;;;;23.33;22.67;;;;;21.93;100.00;101283.41;5098885;27;45721;-75
2023/08/18 01:34:23;;;;;;;;;31.00;28.67;;;;;21.89;100.00;101279.25;5093041;27;45316;-75
2023/08/18 01:36:51;;;;;;;;;30.33;28.67;;;;;21.89;100.00;101277.44;5093458;27;45502;-75
2023/08/18 01:39:18;;;;;;;;;27.67;26.67;;;;;21.87;100.00;101271.31;5088387;27;45465;-74
2023/08/18 01:41:44;;;;;;;;;31.67;28.67;;;;;21.77;100.00;101254.22;5090970;27;46496;-75
2023/08/18 01:44:14;;;;;;;;;37.33;29.67;;;;;21.84;100.00;101268.88;5093393;27;45387;-75
2023/08/18 01:46:40;;;;;;;;;31.00;26.33;;;;;21.80;100.00;101264.72;5088547;27;45575;-75
2023/08/18 01:49:05;;;;;;;;;35.00;29.67;;;;;21.78;100.00;101270.28;5084736;27;45497;-75
2023/08/18 01:51:30;;;;;;;;;28.67;27.67;;;;;21.75;100.00;101262.47;5082774;27;45498;-75
2023/08/18 01:53:55;;;;;;;;;24.33;22.33;;;;;21.77;100.00;101262.31;5082287;27;45623;-75
2023/08/18 01:56:21;;;;;;;;;30.00;24.67;;;;;21.75;100.00;101270.53;5083044;27;45427;-75
2023/08/18 01:58:46;;;;;;;;;30.33;27.67;;;;;21.73;100.00;101266.25;5076218;28;45530;-75
2023/08/18 02:01:12;;;;;;;;;30.67;29.00;;;;;21.68;100.00;101252.34;5085434;27;45313;-75
2023/08/18 02:03:37;;;;;;;;;27.00;24.00;;;;;21.63;100.00;101246.47;5081380;27;45366;-75
2023/08/18 02:06:03;;;;;;;;;32.33;29.00;;;;;21.62;100.00;101252.88;5084500;27;45541;-75
2023/08/18 02:08:28;;;;;;;;;30.33;28.00;;;;;21.65;100.00;101258.00;5094780;27;45485;-74
2023/08/18 02:11:01;;;;;;;;;28.00;27.00;;;;;21.60;100.00;101257.53;5079453;27;46195;-75
2023/08/18 02:13:26;;;;;;;;;33.00;30.00;;;;;21.55;100.00;101251.69;5085397;27;45469;-75
2023/08/18 02:15:51;;;;;;;;;29.00;24.33;;;;;21.60;100.00;101253.00;5078854;27;45359;-75
2023/08/18 02:18:17;;;;;;;;;34.33;31.67;;;;;21.52;100.00;101243.88;5077541;27;45461;-76
2023/08/18 02:20:42;;;;;;;;;32.67;28.67;;;;;21.55;100.00;101252.56;5085293;27;46264;-75
2023/08/18 02:23:08;;;;;;;;;31.00;30.00;;;;;21.48;100.00;101240.59;5088285;27;45637;-75
2023/08/18 02:25:33;;;;;;;;;31.33;28.67;;;;;21.53;100.00;101251.81;5085036;27;45348;-75
2023/08/18 02:27:58;;;;;;;;;32.00;30.00;;;;;21.42;100.00;101240.28;5093314;27;46345;-75
2023/08/18 02:30:23;;;;;;;;;30.33;29.00;;;;;21.43;100.00;101248.22;5080575;27;48064;-75
2023/08/18 02:32:49;;;;;;;;;34.00;29.67;;;;;21.43;100.00;101248.22;5081739;27;45202;-75
2023/08/18 02:35:14;;;;;;;;;28.33;26.67;;;;;21.41;100.00;101246.63;5091702;27;45545;-75
2023/08/18 02:37:40;;;;;;;;;34.00;29.00;;;;;21.38;100.00;101233.44;5075445;27;46474;-75
2023/08/18 02:40:06;;;;;;;;;37.33;28.67;;;;;21.34;100.00;101235.53;5075490;27;46972;-74
2023/08/18 02:42:33;;;;;;;;;29.00;27.33;;;;;21.43;100.00;101241.97;5074788;27;45298;-75
2023/08/18 02:44:59;;;;;;;;;22.67;21.67;;;;;21.40;100.00;101239.56;5093654;27;45583;-74
2023/08/18 02:47:25;;;;;;;;;32.33;30.00;;;;;21.27;100.00;101221.75;5074297;27;45498;-75
2023/08/18 02:49:51;;;;;;;;;31.33;29.00;;;;;21.36;100.00;101236.28;5085390;27;45521;-75
2023/08/18 02:52:16;;;;;;;;;30.33;29.67;;;;;21.32;100.00;101228.59;5087218;27;45303;-75
2023/08/18 02:54:41;;;;;;;;;34.00;29.33;;;;;21.37;100.00;101239.81;5080080;27;46052;-75
2023/08/18 02:57:07;;;;;;;;;31.67;29.33;;;;;21.30;100.00;101229.56;5083524;27;45272;-75
2023/08/18 02:59:32;;;;;;;;;30.33;27.67;;;;;21.33;100.00;101225.78;5066668;27;46494;-75
2023/08/18 03:01:58;;;;;;;;;30.00;28.00;;;;;21.17;100.00;101201.16;5079983;27;45407;-75
2023/08/18 03:04:23;;;;;;;;;32.67;30.00;;;;;21.21;100.00;101207.97;5081089;27;45279;-75
2023/08/18 03:06:49;;;;;;;;;33.00;31.00;;;;;21.29;100.00;101232.41;5084142;27;45269;-75
2023/08/18 03:09:15;;;;;;;;;29.33;26.33;;;;;21.28;100.00;101225.28;5083334;27;46302;-74
2023/08/18 03:11:41;;;;;;;;;32.00;30.33;;;;;21.14;100.00;101194.19;5064985;27;45507;-74
2023/08/18 03:14:07;;;;;;;;;29.33;28.33;;;;;21.22;100.00;101212.38;5084442;27;45561;-75
2023/08/18 03:16:33;;;;;;;;;31.00;29.00;;;;;21.18;100.00;101208.22;5087892;27;45456;-75
2023/08/18 03:18:59;;;;;;;;;32.67;30.33;;;;;21.18;100.00;101205.53;5090486;27;45604;-75
2023/08/18 03:21:24;;;;;;;;;35.00;33.00;;;;;21.14;100.00;101199.56;5086518;27;45497;-74
2023/08/18 03:23:49;;;;;;;;;34.67;30.67;;;;;21.12;100.00;101206.91;5094493;27;45353;-75
2023/08/18 03:26:14;;;;;;;;;28.33;27.33;;;;;21.07;100.00;101197.50;5083329;27;45457;-74
2023/08/18 03:28:40;;;;;;;;;35.00;31.00;;;;;21.11;100.00;101205.19;5092548;27;45462;-74
2023/08/18 03:31:06;;;;;;;;;36.00;32.00;;;;;21.01;100.00;101182.72;5079852;27;45501;-74
2023/08/18 03:33:32;;;;;;;;;36.67;32.00;;;;;21.08;100.00;101199.19;5080914;27;45346;-75
2023/08/18 03:35:58;;;;;;;;;32.67;30.00;;;;;20.94;100.00;101175.31;5086745;27;46696;-75
2023/08/18 03:38:25;;;;;;;;;32.67;28.33;;;;;21.01;100.00;101190.78;5065828;28;48309;-74
2023/08/18 03:41:01;;;;;;;;;30.00;29.67;;;;;20.98;100.00;101200.94;5079830;27;45287;-74
2023/08/18 03:43:27;;;;;;;;;32.00;29.67;;;;;20.84;100.00;101175.25;5079932;27;45570;-75
2023/08/18 03:45:52;;;;;;;;;31.67;29.33;;;;;20.95;100.00;101196.69;5083560;27;45422;-74
2023/08/18 03:48:17;;;;;;;;;29.67;29.67;;;;;20.89;100.00;101196.34;5100533;27;46605;-75
2023/08/18 03:50:43;;;;;;;;;42.33;33.33;;;;;20.91;100.00;101197.09;5086252;27;45353;-75
2023/08/18 03:53:08;;;;;;;;;36.00;31.67;;;;;20.91;100.00;101189.84;5088404;27;45265;-74
2023/08/18 03:55:33;;;;;;;;;32.33;30.67;;;;;20.78;100.00;101173.91;5083977;27;45652;-74
2023/08/18 03:57:59;;;;;;;;;32.67;30.00;;;;;20.86;100.00;101188.53;5083356;27;47840;-75
2023/08/18 04:00:24;;;;;;;;;36.33;31.67;;;;;20.82;100.00;101187.09;5092147;27;45317;-74
2023/08/18 04:02:49;;;;;;;;;35.67;32.33;;;;;20.85;100.00;101193.06;5086104;27;46658;-75
2023/08/18 04:05:15;;;;;;;;;32.00;30.67;;;;;20.85;100.00;101193.06;5080289;27;45334;-75
2023/08/18 04:07:40;;;;;;;;;32.33;29.33;;;;;20.77;100.00;101182.13;5087359;27;46297;-75
2023/08/18 04:10:07;;;;;;;;;37.67;32.33;;;;;20.84;100.00;101191.38;5098427;27;45322;-74
2023/08/18 04:12:32;;;;;;;;;31.33;29.67;;;;;20.84;100.00;101195.91;5086138;27;45276;-75
2023/08/18 04:14:57;;;;;;;;;35.00;30.67;;;;;20.82;100.00;101193.31;5080654;27;45443;-75
2023/08/18 04:17:23;;;;;;;;;33.00;28.33;;;;;20.82;100.00;101198.69;5088931;27;45298;-75
2023/08/18 04:19:48;;;;;;;;;38.33;32.33;;;;;20.77;100.00;101185.66;5094170;27;47139;-75
2023/08/18 04:22:13;;;;;;;;;43.67;33.33;;;;;20.74;100.00;101185.06;5087187;27;45443;-74
2023/08/18 04:24:39;;;;;;;;;34.33;30.67;;;;;20.74;100.00;101185.06;5093877;27;48820;-75
2023/08/18 04:27:04;;;;;;;;;35.33;31.00;;;;;20.74;100.00;101185.88;5084427;27;46253;-76
2023/08/18 04:29:29;;;;;;;;;38.33;32.67;;;;;20.69;100.00;101172.00;5078240;27;45222;-75
2023/08/18 04:31:55;;;;;;;;;32.67;29.67;;;;;20.72;100.00;101185.19;5079591;27;45542;-75
2023/08/18 04:34:20;;;;;;;;;43.33;33.67;;;;;20.70;100.00;101184.47;5086891;27;50271;-75
2023/08/18 04:36:46;;;;;;;;;38.00;32.67;;;;;20.62;100.00;101167.25;5066596;28;45640;-75
2023/08/18 04:39:11;;;;;;;;;39.00;31.67;;;;;20.56;100.00;101163.25;5082930;27;45245;-75
2023/08/18 04:41:37;;;;;;;;;35.67;31.33;;;;;20.61;100.00;101170.94;5091160;27;45308;-75
2023/08/18 04:44:03;;;;;;;;;37.33;30.67;;;;;20.65;100.00;101180.44;5091267;27;45347;-75
2023/08/18 04:46:29;;;;;;;;;39.67;32.67;;;;;20.54;100.00;101162.53;5096534;27;45395;-75
2023/08/18 04:48:55;;;;;;;;;36.67;33.00;;;;;20.62;100.00;101173.47;5075297;27;45744;-75
2023/08/18 04:51:20;;;;;;;;;36.00;31.33;;;;;20.60;100.00;101172.78;5097785;27;45539;-75
2023/08/18 04:53:46;;;;;;;;;35.33;32.67;;;;;20.50;100.00;101161.06;5093930;27;45483;-75
2023/08/18 04:56:11;;;;;;;;;32.33;31.00;;;;;20.58;100.00;101180.09;5081958;27;46405;-75
2023/08/18 04:58:37;;;;;;;;;24.67;19.00;;;;;20.57;100.00;101174.84;5092116;27;45269;-76
2023/08/18 05:01:03;;;;;;;;;40.50;34.25;;;;;20.51;100.00;101170.84;5083582;27;45485;-75
2023/08/18 05:03:28;;;;;;;;;36.33;32.67;;;;;20.59;100.00;101168.38;5083921;27;45364;-76
2023/08/18 05:06:03;;;;;;;;;41.33;36.33;;;;;20.61;100.00;101174.47;5081235;27;47276;-75
2023/08/18 05:08:29;;;;;;;;;31.33;30.67;;;;;20.55;100.00;101161.53;5096719;27;45301;-75
2023/08/18 05:11:13;;;;;;;;;40.00;35.33;;;;;20.57;100.00;101172.16;5074344;28;45686;-75
2023/08/18 05:13:41;;;;;;;;;32.00;31.33;;;;;20.65;100.00;101180.44;5069419;27;45348;-75
2023/08/18 05:16:06;;;;;;;;;35.00;30.33;;;;;20.64;100.00;101189.50;5081510;27;45356;-76
2023/08/18 05:18:32;;;;;;;;;42.00;33.50;;;;;20.59;100.00;101170.19;5091855;27;47250;-75
2023/08/18 05:20:58;;;;;;;;;42.75;35.75;;;;;20.69;100.00;101180.06;5074609;27;45367;-75
2023/08/18 05:23:25;;;;;;;;;37.75;33.25;;;;;20.73;100.00;101170.75;5081989;27;45375;-76
2023/08/18 05:25:54;;;;;;;;;35.00;32.50;;;;;20.76;100.00;101169.66;5080211;27;48328;-76
2023/08/18 05:28:23;;;;;;;;;39.33;27.67;;;;;20.72;100.00;101146.69;5080858;27;45557;-75
2023/08/18 05:30:50;;;;;;;;;42.67;34.00;;;;;20.72;100.00;101139.47;5085462;27;45561;-75
2023/08/18 05:33:15;;;;;;;;;40.67;34.33;;;;;20.81;100.00;101143.22;5078699;28;45392;-75
2023/08/18 05:35:41;;;;;;;;;41.00;34.00;;;;;20.83;100.00;101138.56;5063168;27;47108;-75
2023/08/18 05:38:10;;;;;;;;;34.00;32.00;;;;;20.92;100.00;101145.84;5086907;27;45311;-75
2023/08/18 05:40:47;;;;;;;;;34.33;31.33;;;;;21.02;100.00;101154.00;5080039;27;45249;-76
2023/08/18 05:43:14;;;;;;;;;36.33;31.33;;;;;21.04;100.00;101155.56;5062113;28;45565;-75
2023/08/18 05:45:39;;;;;;;;;38.25;34.25;;;;;21.10;100.00;101157.78;5082001;27;45372;-75
2023/08/18 05:48:05;;;;;;;;;43.33;33.33;;;;;21.16;100.00;101159.94;5068459;27;45291;-75
2023/08/18 05:50:32;;;;;;;;;39.67;34.33;;;;;21.15;100.00;101152.84;5089369;27;45339;-75
2023/08/18 05:52:58;;;;;;;;;39.33;33.67;;;;;21.20;100.00;101153.28;5087750;27;45535;-75
2023/08/18 05:55:24;;;;;;;;;35.33;33.00;;;;;21.24;100.00;101160.13;5090698;27;45761;-75
2023/08/18 05:57:49;;;;;;;;;30.67;28.00;;;;;21.34;100.00;101156.63;5068977;27;45556;-76
2023/08/18 06:00:15;;;;;;;;;35.00;31.33;;;;;21.41;100.00;101153.28;5083581;27;45535;-76
2023/08/18 06:02:42;;;;;;;;;32.67;31.00;;;;;21.39;100.00;101146.34;5084597;27;45412;-77
2023/08/18 06:05:10;;;;;;;;;30.33;30.00;;;;;21.48;100.00;101143.72;5082001;28;45520;-76
2023/08/18 06:07:35;;;;;;;;;38.00;33.00;;;;;21.61;100.00;101151.56;5094124;27;45314;-76
2023/08/18 06:10:01;;;;;;;;;30.67;28.00;;;;;21.63;100.00;101144.19;5089604;27;45292;-76
2023/08/18 06:12:27;;;;;;;;;39.00;33.00;;;;;21.70;100.00;101148.03;5087214;27;45665;-77
2023/08/18 06:14:52;;;;;;;;;32.67;31.67;;;;;21.74;100.00;101141.41;5084849;27;45873;-77
2023/08/18 06:17:17;;;;;;;;;35.67;32.33;;;;;21.74;100.00;101126.13;5083883;27;45324;-77
2023/08/18 06:19:43;;;;;;;;;36.00;30.67;;;;;21.92;100.00;101141.66;5083909;27;45533;-76
2023/08/18 06:22:09;;;;;;;;;37.00;33.67;;;;;21.90;100.00;101143.63;5081381;27;45308;-76
2023/08/18 06:24:34;;;;;;;;;41.00;35.00;;;;;21.95;100.00;101149.47;5098373;27;45261;-76
2023/08/18 06:26:59;;;;;;;;;41.67;33.33;;;;;22.00;100.00;101144.50;5085990;27;45481;-77
2023/08/18 06:29:24;;;;;;;;;33.00;29.33;;;;;22.00;100.00;101125.66;5091318;27;45519;-76
2023/08/18 06:31:50;;;;;;;;;30.00;29.67;;;;;22.04;100.00;101130.63;5080151;27;45408;-76
2023/08/18 06:34:15;;;;;;;;;34.00;31.33;;;;;22.12;100.00;101136.16;5081654;27;45364;-77
2023/08/18 06:36:40;;;;;;;;;33.67;31.33;;;;;22.17;100.00;101135.78;5063219;27;45335;-76
2023/08/18 06:39:06;;;;;;;;;39.33;31.33;;;;;22.20;100.00;101135.50;5095829;27;45487;-76
2023/08/18 06:41:31;;;;;;;;;30.00;29.67;;;;;22.29;100.00;101148.13;5090012;27;45412;-77
2023/08/18 06:43:56;;;;;;;;;35.67;31.33;;;;;22.20;100.00;101120.19;5074083;27;45752;-77
2023/08/18 06:46:22;;;;;;;;;30.00;28.00;;;;;22.30;100.00;101136.38;5078141;27;45456;-77
2023/08/18 06:48:47;;;;;;;;;33.33;31.67;;;;;22.40;100.00;101149.84;5089349;27;45319;-77
2023/08/18 06:51:12;;;;;;;;;31.67;30.33;;;;;22.44;100.00;101143.19;5079880;27;45508;-77
2023/08/18 06:53:38;;;;;;;;;39.00;31.33;;;;;22.41;100.00;101136.25;5091982;27;45475;-77
2023/08/18 06:56:03;;;;;;;;;36.00;32.00;;;;;22.38;100.00;101119.50;5081637;27;45350;-76
2023/08/18 06:58:30;;;;;;;;;34.67;29.67;;;;;22.41;100.00;101121.91;5068196;27;45607;-77
2023/08/18 07:00:55;;;;;;;;;32.67;31.33;;;;;22.67;100.00;101145.53;5091872;27;45600;-77
2023/08/18 07:03:21;;;;;;;;;34.67;31.33;;;;;22.71;100.00;101146.06;5080202;27;46090;-76
2023/08/18 07:05:46;;;;;;;;;36.00;33.33;;;;;22.74;100.00;101140.41;5098241;27;45351;-77
2023/08/18 07:08:11;;;;;;;;;28.67;27.33;;;;;22.82;100.00;101148.63;5096216;27;45596;-76
2023/08/18 07:10:37;;;;;;;;;37.33;33.00;;;;;22.90;100.00;101150.63;5087542;27;45308;-76
2023/08/18 07:13:03;;;;;;;;;35.00;27.67;;;;;22.87;100.00;101134.72;5076068;28;47359;-76
2023/08/18 07:15:28;;;;;;;;;34.67;30.67;;;;;22.84;100.00;101128.59;5090239;27;45306;-76
2023/08/18 07:17:53;;;;;;;;;34.00;32.67;;;;;23.01;100.00;101140.50;5086271;27;45912;-76
2023/08/18 07:20:19;;;;;;;;;34.33;32.67;;;;;22.92;100.00;101125.19;5087056;27;45402;-77
2023/08/18 07:22:44;;;;;;;;;31.33;30.67;;;;;22.91;100.00;101120.78;5081462;27;50018;-77
2023/08/18 07:25:10;;;;;;;;;28.33;25.33;;;;;22.97;100.00;101124.78;5074491;27;45525;-77
2023/08/18 07:27:36;;;;;;;;;29.00;27.67;;;;;23.01;100.00;101134.25;5067799;28;45344;-77
2023/08/18 07:30:01;;;;;;;;;35.67;32.33;;;;;22.98;100.00;101140.81;5072710;28;45256;-77
2023/08/18 07:32:27;;;;;;;;;38.00;28.33;;;;;23.00;100.00;101137.97;5061161;27;47729;-77
2023/08/18 07:34:52;;;;;;;;;31.67;29.67;;;;;23.12;100.00;101153.88;5090025;27;46893;-76
2023/08/18 07:37:17;;;;;;;;;23.00;22.33;;;;;23.17;100.00;101156.97;5083035;27;47767;-77
2023/08/18 07:39:42;;;;;;;;;33.00;31.33;;;;;23.21;100.00;101153.00;5086401;27;55548;-76
2023/08/18 07:42:08;;;;;;;;;35.67;32.33;;;;;23.30;100.00;101153.94;5080491;27;48226;-77
2023/08/18 07:44:34;;;;;;;;;28.67;26.33;;;;;23.36;100.00;101161.50;5084253;27;45555;-77
2023/08/18 07:46:59;;;;;;;;;38.33;31.00;;;;;23.35;100.00;101157.09;5089059;27;45425;-77
2023/08/18 07:49:24;;;;;;;;;40.00;32.33;;;;;23.49;100.00;101158.50;5079514;28;45375;-77
2023/08/18 07:51:50;;;;;;;;;31.00;25.67;;;;;23.50;100.00;101155.66;5079368;27;47074;-77
2023/08/18 07:54:15;;;;;;;;;28.33;25.33;;;;;23.57;100.00;101151.38;5077510;28;45345;-77
2023/08/18 07:56:40;;;;;;;;;32.33;30.33;;;;;23.63;100.00;101149.91;5070490;27;45459;-77
2023/08/18 07:59:06;;;;;;;;;34.33;31.33;;;;;23.67;100.00;101145.91;5079612;27;45971;-77
2023/08/18 08:01:31;;;;;;;;;39.33;31.33;;;;;23.83;100.00;101152.41;5079831;27;45368;-77
2023/08/18 08:03:56;;;;;;;;;31.33;28.33;;;;;23.89;100.00;101145.53;5087611;27;45433;-77
2023/08/18 08:06:22;;;;;;;;;33.00;29.33;;;;;24.19;100.00;101160.63;5088558;27;45360;-77
2023/08/18 08:08:47;;;;;;;;;29.67;24.33;;;;;24.33;100.00;101176.34;5078268;27;48217;-76
2023/08/18 08:11:13;;;;;;;;;26.67;25.00;;;;;24.44;100.00;101167.19;5091211;27;46191;-77
2023/08/18 08:13:39;;;;;;;;;31.67;25.67;;;;;24.53;100.00;101171.66;5086067;27;45472;-78
2023/08/18 08:16:05;;;;;;;;;32.67;29.67;;;;;24.71;100.00;101164.41;5090972;27;45330;-78
2023/08/18 08:18:33;;;;;;;;;29.00;27.00;;;;;24.95;100.00;101156.53;5082302;27;45356;-77
2023/08/18 08:21:00;;;;;;;;;34.00;30.33;;;;;25.20;100.00;101177.38;5080370;27;46092;-77
2023/08/18 08:23:25;;;;;;;;;34.00;30.00;;;;;25.25;97.70;101153.41;5086887;27;45399;-77
2023/08/18 08:25:51;;;;;;;;;29.00;27.33;;;;;25.38;95.99;101152.97;5088220;27;45608;-78
2023/08/18 08:28:16;;;;;;;;;29.67;26.33;;;;;25.55;95.65;101157.53;5074012;28;51944;-78
2023/08/18 08:30:44;;;;;;;;;29.67;22.67;;;;;25.73;94.90;101149.31;5079641;28;45426;-78
2023/08/18 08:33:12;;;;;;;;;33.00;28.33;;;;;25.93;95.85;101150.78;5080190;27;45449;-77
2023/08/18 08:35:38;;;;;;;;;29.00;28.00;;;;;26.15;92.08;101138.47;5078977;27;45523;-77
2023/08/18 08:38:05;;;;;;;;;26.33;24.67;;;;;26.45;90.69;101146.06;5086260;27;45447;-77
2023/08/18 08:40:30;;;;;;;;;31.67;28.67;;;;;26.63;89.78;101126.94;5060400;28;47254;-77
2023/08/18 08:42:59;;;;;;;;;29.33;25.67;;;;;26.79;89.82;101137.78;5081445;27;45471;-78
2023/08/18 08:45:26;;;;;;;;;21.33;21.33;;;;;26.95;91.37;101135.13;5083038;27;45272;-77
2023/08/18 08:47:54;;;;;;;;;23.67;22.00;;;;;27.21;88.82;101143.91;5081991;27;45305;-78
2023/08/18 08:50:22;;;;;;;;;22.67;21.33;;;;;27.29;86.08;101154.75;5088595;27;45687;-77
2023/08/18 08:52:56;;;;;;;;;30.67;24.67;;;;;27.31;88.67;101147.31;5079985;27;45301;-77
2023/08/18 08:55:24;;;;;;;;;21.33;20.33;;;;;27.29;86.21;101143.06;5066392;28;45456;-77
2023/08/18 08:57:50;;;;;;;;;28.33;24.33;;;;;27.27;86.35;101145.09;5091582;27;45518;-78
2023/08/18 09:00:16;;;;;;;;;25.00;21.67;;;;;27.27;88.70;101132.38;5071288;28;45466;-78
2023/08/18 09:02:45;;;;;;;;;29.00;25.33;;;;;27.28;84.63;101125.06;5082172;27;47119;-77
2023/08/18 09:05:10;;;;;;;;;25.33;22.67;;;;;27.34;87.04;101116.22;5088258;27;45525;-78
2023/08/18 09:07:36;;;;;;;;;23.67;22.67;;;;;27.61;85.07;101123.16;5081217;27;45468;-77
2023/08/18 09:10:01;;;;;;;;;20.33;20.33;;;;;27.65;86.85;101097.34;5078809;27;45470;-77
2023/08/18 09:12:30;;;;;;;;;25.67;22.33;;;;;27.88;83.77;101122.69;5078329;27;45354;-78
2023/08/18 09:14:56;;;;;;;;;22.00;21.00;;;;;27.98;82.72;101117.88;5061126;27;45339;-78
2023/08/18 09:17:22;;;;;;;;;22.00;20.67;;;;;28.19;82.16;101120.03;5089203;27;45693;-78
2023/08/18 09:19:49;;;;;;;;;19.00;19.00;;;;;28.38;80.55;101119.56;5081415;27;45462;-77
2023/08/18 09:22:21;;;;;;;;;19.33;19.33;;;;;28.39;82.15;101110.41;5081644;27;45448;-77
2023/08/18 09:24:49;;;;;;;;;19.00;17.00;;;;;28.46;80.34;101105.94;5094760;27;45293;-78
2023/08/18 09:27:14;;;;;;;;;20.33;19.33;;;;;28.47;81.03;101101.34;5093917;27;45418;-77
2023/08/18 09:29:40;;;;;;;;;16.00;16.00;;;;;28.45;78.50;101102.34;5096704;27;45593;-77
2023/08/18 09:32:08;;;;;;;;;22.67;20.33;;;;;28.58;80.71;101101.75;5070757;27;55526;-78
2023/08/18 09:34:38;;;;;;;;;22.33;18.33;;;;;28.73;80.50;101096.41;5083796;27;45553;-77
2023/08/18 09:37:04;;;;;;;;;18.67;17.67;;;;;28.78;80.18;101092.09;5082026;27;45641;-77
2023/08/18 09:39:29;;;;;;;;;15.67;15.00;;;;;28.88;77.66;101084.53;5062781;28;47184;-77
2023/08/18 09:41:55;;;;;;;;;13.67;13.67;;;;;29.09;79.77;101100.13;5076372;27;45292;-78
2023/08/18 09:44:24;;;;;;;;;20.00;18.00;;;;;29.05;78.77;101096.09;5096153;27;45406;-78
2023/08/18 09:46:57;;;;;;;;;19.00;16.67;;;;;29.03;79.73;101089.13;5089192;27;45405;-78
2023/08/18 09:49:24;;;;;;;;;17.33;17.33;;;;;29.05;80.88;101093.38;5085933;27;46156;-77
2023/08/18 09:51:52;;;;;;;;;22.00;18.00;;;;;29.03;81.05;101089.97;5063520;27;46020;-78
2023/08/18 09:54:19;;;;;;;;;17.33;15.67;;;;;29.07;80.24;101087.72;5081011;27;45346;-78
2023/08/18 09:56:48;;;;;;;;;20.33;17.00;;;;;29.17;78.39;101081.00;5086233;27;45627;-77
2023/08/18 09:59:21;;;;;;;;;17.33;17.33;;;;;29.31;78.94;101076.63;5085086;27;46379;-78
2023/08/18 10:01:48;;;;;;;;;18.00;16.33;;;;;29.38;79.55;101075.66;5073065;27;45499;-78
2023/08/18 10:04:16;;;;;;;;;15.33;14.33;;;;;29.39;76.54;101058.28;5081742;27;45591;-78
2023/08/18 10:06:44;;;;;;;;;18.67;15.67;;;;;29.62;77.30;101079.16;5063660;28;45493;-77
2023/08/18 10:09:10;;;;;;;;;24.67;17.67;;;;;29.75;76.54;101072.00;5081843;27;45431;-77
2023/08/18 10:11:36;;;;;;;;;13.00;13.00;;;;;29.69;72.97;101053.66;5090228;27;45526;-78
2023/08/18 10:14:03;;;;;;;;;18.00;18.00;;;;;29.82;76.60;101075.66;5087245;27;45480;-77
2023/08/18 10:16:30;;;;;;;;;16.67;16.67;;;;;29.81;74.04;101079.41;5093927;27;45299;-77
2023/08/18 10:18:56;;;;;;;;;17.67;16.67;;;;;29.82;74.78;101072.94;5081755;27;46661;-78
2023/08/18 10:21:22;;;;;;;;;18.33;16.67;;;;;29.81;74.74;101057.59;5097488;27;46941;-78
2023/08/18 10:23:47;;;;;;;;;13.33;13.33;;;;;29.88;72.38;101052.25;5084211;27;45517;-77
2023/08/18 10:26:14;;;;;;;;;15.00;15.00;;;;;29.81;73.76;101043.94;5080602;27;46270;-78
2023/08/18 10:28:40;;;;;;;;;18.00;15.00;;;;;29.82;73.26;101045.66;5078723;28;45418;-77
2023/08/18 10:31:11;;;;;;;;;17.00;17.00;;;;;29.76;75.50;101038.25;5081471;27;45351;-77
2023/08/18 10:33:44;;;;;;;;;17.00;14.33;;;;;29.86;74.83;101054.34;5080202;27;45387;-78
2023/08/18 10:36:12;;;;;;;;;17.00;16.67;;;;;29.88;76.94;101058.56;5095952;27;45590;-78
2023/08/18 10:38:39;;;;;;;;;15.00;15.00;;;;;29.90;75.74;101042.84;5084429;27;46281;-78
2023/08/18 10:41:04;;;;;;;;;20.00;14.67;;;;;30.01;75.03;101048.84;5067716;28;45458;-77
2023/08/18 10:43:41;;;;;;;;;15.67;14.00;;;;;30.05;76.62;101052.88;5092675;27;45426;-78
2023/08/18 10:46:13;;;;;;;;;17.67;14.67;;;;;30.10;75.94;101044.97;5077650;27;45507;-77
2023/08/18 10:48:38;;;;;;;;;13.00;13.00;;;;;30.24;72.14;101054.97;5086121;27;45660;-78
2023/08/18 10:51:03;;;;;;;;;17.67;16.67;;;;;30.27;72.88;101052.69;5079449;27;45414;-78
2023/08/18 10:53:33;;;;;;;;;14.00;13.67;;;;;30.29;75.77;101057.97;5087447;27;45461;-77
2023/08/18 10:56:00;;;;;;;;;14.33;12.33;;;;;30.26;71.15;101052.91;5079324;27;45527;-78
2023/08/18 10:58:25;;;;;;;;;14.00;13.00;;;;;30.17;74.52;101038.53;5082124;27;45620;-78
2023/08/18 11:00:51;;;;;;;;;14.67;13.00;;;;;30.23;72.61;101051.41;5089814;27;45550;-78